createdAt,value
2019-04-22T00:01:28.304Z,99739.72
2019-04-22T00:04:08.005Z,99733.81
2019-04-22T00:06:59.515Z,99732.63
2019-04-22T00:09:38.895Z,99732.67
2019-04-22T00:14:48.348Z,99731.24
2019-04-22T00:17:36.875Z,99738.17
2019-04-22T00:20:06.058Z,99738.05
2019-04-22T00:22:38.639Z,99737.92
2019-04-22T00:25:17.917Z,99735.10
2019-04-22T00:27:47.695Z,99735.80
2019-04-22T00:30:36.906Z,99730.61
2019-04-22T00:33:19.032Z,99732.75
2019-04-22T00:35:49.405Z,99732.28
2019-04-22T00:38:31.538Z,99731.95
2019-04-22T00:41:00.541Z,99734.91
2019-04-22T00:43:45.171Z,99736.35
2019-04-22T00:46:19.632Z,99735.31
2019-04-22T00:48:59.237Z,99739.37
2019-04-22T00:51:28.527Z,99736.21
2019-04-22T00:54:04.188Z,99733.05
2019-04-22T00:56:32.632Z,99724.80
2019-04-22T00:59:07.001Z,99732.35
2019-04-22T01:01:46.307Z,99729.80
2019-04-22T01:04:27.981Z,99732.22
2019-04-22T01:07:02.063Z,99737.77
2019-04-22T01:12:12.082Z,99735.13
2019-04-22T01:14:41.454Z,99737.97
2019-04-22T01:17:19.345Z,99748.78
2019-04-22T01:19:58.558Z,99747.09
2019-04-22T01:22:28.548Z,99748.65
2019-04-22T01:25:01.957Z,99746.72
2019-04-22T01:27:37.400Z,99748.09
2019-04-22T01:30:08.439Z,99746.76
2019-04-22T01:32:36.092Z,99745.52
2019-04-22T01:35:20.786Z,99746.67
2019-04-22T01:38:00.028Z,99743.94
2019-04-22T01:40:47.728Z,99738.94
2019-04-22T01:43:50.300Z,99736.16
2019-04-22T01:45:53.256Z,99736.50
2019-04-22T01:48:35.789Z,99738.02
2019-04-22T01:51:01.002Z,99739.27
2019-04-22T01:53:42.472Z,99739.53
2019-04-22T01:56:20.514Z,99742.27
2019-04-22T01:58:44.084Z,99740.53
2019-04-22T02:01:31.729Z,99740.45
2019-04-22T02:04:01.185Z,99739.45
2019-04-22T02:06:46.281Z,99738.95
2019-04-22T02:09:17.328Z,99736.02
2019-04-22T02:14:27.006Z,99743.94
2019-04-22T02:17:04.277Z,99739.95
2019-04-22T02:19:37.304Z,99740.00
2019-04-22T02:22:11.636Z,99742.09
2019-04-22T02:24:44.139Z,99736.18
2019-04-22T02:27:28.686Z,99738.69
2019-04-22T02:29:52.348Z,99740.58
2019-04-22T02:35:27.979Z,99748.25
2019-04-22T02:37:45.257Z,99748.77
2019-04-22T02:40:30.669Z,99748.17
2019-04-22T02:43:01.822Z,99746.24
2019-04-22T02:45:37.582Z,99745.48
2019-04-22T02:48:10.323Z,99747.00
2019-04-22T02:50:46.159Z,99747.65
2019-04-22T02:53:36.537Z,99748.89
2019-04-22T02:56:04.943Z,99745.64
2019-04-22T03:01:13.855Z,99752.39
2019-04-22T03:04:01.643Z,99748.19
2019-04-22T03:06:34.717Z,99743.77
2019-04-22T03:11:36.123Z,99751.42
2019-04-22T03:14:08.794Z,99745.26
2019-04-22T03:16:48.838Z,99752.84
2019-04-22T03:24:25.581Z,99747.70
2019-04-22T03:27:00.896Z,99747.86
2019-04-22T03:33:05.898Z,99747.72
2019-04-22T03:37:55.982Z,99754.25
2019-04-22T03:45:42.546Z,99755.83
2019-04-22T03:48:15.913Z,99754.64
2019-04-22T03:50:56.193Z,99752.05
2019-04-22T03:53:52.230Z,99749.69
2019-04-22T03:56:28.754Z,99744.43
2019-04-22T03:58:54.052Z,99753.00
2019-04-22T04:01:29.579Z,99749.31
2019-04-22T04:04:02.969Z,99749.41
2019-04-22T04:06:43.234Z,99746.12
2019-04-22T04:09:14.377Z,99745.62
2019-04-22T04:11:55.757Z,99758.53
2019-04-22T04:16:56.438Z,99760.72
2019-04-22T04:19:36.734Z,99764.98
2019-04-22T04:22:11.949Z,99769.55
2019-04-22T04:25:05.845Z,99779.36
2019-04-22T04:27:30.949Z,99778.86
2019-04-22T04:30:05.532Z,99783.92
2019-04-22T04:32:38.776Z,99781.99
2019-04-22T04:35:18.928Z,99778.33
2019-04-22T04:37:46.921Z,99776.99
2019-04-22T04:47:57.910Z,99797.38
2019-04-22T04:50:38.559Z,99805.98
2019-04-22T04:53:20.553Z,99809.14
2019-04-22T04:55:35.126Z,99807.34
2019-04-22T05:00:57.691Z,99814.34
2019-04-22T05:03:43.499Z,99808.10
2019-04-22T05:06:10.665Z,99808.73
2019-04-22T05:11:32.219Z,99805.20
2019-04-22T05:13:57.779Z,99802.73
2019-04-22T05:16:34.414Z,99809.59
2019-04-22T05:19:24.012Z,99811.85
2019-04-22T05:21:40.181Z,99813.97
2019-04-22T05:24:40.121Z,99814.64
2019-04-22T05:29:34.615Z,99817.11
2019-04-22T05:32:01.434Z,99817.89
2019-04-22T05:34:33.421Z,99816.35
2019-04-22T05:37:14.510Z,99808.39
2019-04-22T05:39:49.629Z,99812.53
2019-04-22T05:42:18.064Z,99822.16
2019-04-22T05:45:00.780Z,99826.36
2019-04-22T05:47:37.084Z,99825.05
2019-04-22T05:50:07.563Z,99833.90
2019-04-22T05:52:49.803Z,99833.35
2019-04-22T05:55:33.222Z,99836.09
2019-04-22T05:58:07.188Z,99835.54
2019-04-22T06:01:05.693Z,99836.95
2019-04-22T06:03:12.420Z,99831.35
2019-04-22T06:05:47.399Z,99833.92
2019-04-22T06:08:23.350Z,99832.83
2019-04-22T06:11:14.846Z,99830.16
2019-04-22T06:13:32.967Z,99832.75
2019-04-22T06:16:20.603Z,99833.99
2019-04-22T06:18:56.646Z,99828.30
2019-04-22T06:21:36.007Z,99826.14
2019-04-22T06:24:11.199Z,99832.89
2019-04-22T06:27:06.480Z,99832.84
2019-04-22T06:32:17.437Z,99832.34
2019-04-22T06:34:28.723Z,99834.81
2019-04-22T06:37:08.221Z,99830.08
2019-04-22T06:39:39.726Z,99832.74
2019-04-22T06:42:13.761Z,99836.25
2019-04-22T06:44:54.977Z,99834.30
2019-04-22T06:47:39.905Z,99841.87
2019-04-22T06:49:59.204Z,99841.14
2019-04-22T06:52:36.592Z,99844.70
2019-04-22T06:55:16.411Z,99842.57
2019-04-22T06:57:43.677Z,99836.16
2019-04-22T07:00:22.711Z,99841.63
2019-04-22T07:05:27.592Z,99836.80
2019-04-22T07:08:18.297Z,99840.10
2019-04-22T07:10:49.168Z,99841.36
2019-04-22T07:13:23.563Z,99842.31
2019-04-22T07:18:33.383Z,99848.83
2019-04-22T07:21:01.231Z,99852.05
2019-04-22T07:23:40.356Z,99851.03
2019-04-22T07:28:49.126Z,99843.26
2019-04-22T07:31:20.549Z,99840.62
2019-04-22T07:34:11.862Z,99847.89
2019-04-22T07:39:09.674Z,99839.57
2019-04-22T07:41:44.613Z,99845.30
2019-04-22T07:44:24.272Z,99841.02
2019-04-22T07:47:08.408Z,99837.98
2019-04-22T07:52:14.241Z,99835.81
2019-04-22T07:54:46.736Z,99841.47
2019-04-22T07:57:31.612Z,99827.23
2019-04-22T08:00:00.732Z,99837.25
2019-04-22T08:02:31.777Z,99835.99
2019-04-22T08:07:46.763Z,99849.91
2019-04-22T08:10:23.888Z,99858.08
2019-04-22T08:12:55.097Z,99861.91
2019-04-22T08:15:27.994Z,99860.81
2019-04-22T08:20:43.585Z,99869.09
2019-04-22T08:23:16.482Z,99870.41
2019-04-22T08:28:25.532Z,99870.34
2019-04-22T08:31:02.098Z,99864.11
2019-04-22T08:33:46.904Z,99863.42
2019-04-22T08:38:50.757Z,99864.30
2019-04-22T08:41:28.484Z,99862.31
2019-04-22T08:44:37.298Z,99862.40
2019-04-22T08:47:04.353Z,99859.68
2019-04-22T08:49:16.080Z,99867.27
2019-04-22T08:51:54.979Z,99868.59
2019-04-22T08:54:34.121Z,99869.66
2019-04-22T08:59:43.167Z,99875.52
2019-04-22T09:02:24.326Z,99877.17
2019-04-22T09:04:53.731Z,99878.86
2019-04-22T09:10:02.188Z,99885.70
2019-04-22T09:12:56.097Z,99889.63
2019-04-22T09:15:16.683Z,99888.16
2019-04-22T09:17:59.191Z,99887.78
2019-04-22T09:20:20.688Z,99895.63
2019-04-22T09:23:02.735Z,99890.19
2019-04-22T09:25:34.188Z,99887.27
2019-04-22T09:28:08.726Z,99891.48
2019-04-22T09:30:50.259Z,99892.45
2019-04-22T09:33:20.819Z,99891.77
2019-04-22T09:36:07.816Z,99896.73
2019-04-22T09:41:00.497Z,99895.14
2019-04-22T09:43:41.115Z,99898.61
2019-04-22T09:46:14.861Z,99905.91
2019-04-22T09:48:50.140Z,99907.24
2019-04-22T09:51:25.261Z,99908.50
2019-04-22T09:54:08.577Z,99908.48
2019-04-22T09:56:38.761Z,99903.80
2019-04-22T09:59:13.774Z,99902.98
2019-04-22T10:01:56.894Z,99905.84
2019-04-22T10:04:18.811Z,99907.23
2019-04-22T10:06:54.260Z,99905.14
2019-04-22T10:09:49.526Z,99901.63
2019-04-22T10:12:19.609Z,99894.86
2019-04-22T10:14:50.870Z,99891.32
2019-04-22T10:17:17.612Z,99888.20
2019-04-22T10:19:57.534Z,99883.03
2019-04-22T10:22:37.554Z,99882.70
2019-04-22T10:25:04.872Z,99880.77
2019-04-22T10:27:39.516Z,99884.56
2019-04-22T10:30:39.173Z,99888.48
2019-04-22T10:32:47.312Z,99888.63
2019-04-22T10:35:15.473Z,99886.61
2019-04-22T10:37:46.095Z,99885.97
2019-04-22T10:40:32.631Z,99885.50
2019-04-22T10:43:07.320Z,99880.92
2019-04-22T10:45:40.226Z,99876.05
2019-04-22T10:48:16.362Z,99863.16
2019-04-22T10:50:54.673Z,99867.73
2019-04-22T10:53:29.165Z,99853.95
2019-04-22T10:56:03.224Z,99857.27
2019-04-22T10:58:38.490Z,99851.66
2019-04-22T11:01:11.613Z,99856.00
2019-04-22T11:03:45.650Z,99847.84
2019-04-22T11:06:21.305Z,99843.19
2019-04-22T11:08:59.263Z,99848.39
2019-04-22T11:11:39.530Z,99850.77
2019-04-22T11:14:04.440Z,99841.70
2019-04-22T11:16:39.498Z,99829.12
2019-04-22T11:19:13.934Z,99830.38
2019-04-22T11:22:01.090Z,99823.78
2019-04-22T11:24:23.055Z,99820.09
2019-04-22T11:26:57.017Z,99810.25
2019-04-22T11:29:31.804Z,99816.17
2019-04-22T11:32:06.257Z,99820.62
2019-04-22T11:34:39.525Z,99814.32
2019-04-22T11:37:12.390Z,99809.16
2019-04-22T11:39:48.140Z,99805.91
2019-04-22T11:42:23.859Z,99804.63
2019-04-22T11:44:57.210Z,99793.36
2019-04-22T11:47:31.077Z,99789.10
2019-04-22T11:50:05.903Z,99789.48
2019-04-22T11:52:40.624Z,99786.52
2019-04-22T11:55:15.231Z,99779.41
2019-04-22T11:57:49.887Z,99769.41
2019-04-22T12:00:34.779Z,99769.20
2019-04-22T12:03:09.297Z,99767.09
2019-04-22T12:05:43.766Z,99754.08
2019-04-22T12:08:17.425Z,99752.20
2019-04-22T12:10:54.599Z,99741.33
2019-04-22T12:13:26.227Z,99734.62
2019-04-22T12:16:00.879Z,99718.11
2019-04-22T12:18:35.376Z,99719.91
2019-04-22T12:21:09.135Z,99708.72
2019-04-22T12:23:43.412Z,99696.45
2019-04-22T12:26:19.195Z,99697.02
2019-04-22T12:28:53.245Z,99689.02
2019-04-22T12:31:27.292Z,99679.06
2019-04-22T12:34:01.438Z,99683.02
2019-04-22T12:36:34.450Z,99682.00
2019-04-22T12:39:09.744Z,99679.94
2019-04-22T12:41:44.320Z,99675.50
2019-04-22T12:44:18.095Z,99672.77
2019-04-22T12:46:52.689Z,99676.33
2019-04-22T12:49:27.942Z,99680.67
2019-04-22T12:52:01.408Z,99684.24
2019-04-22T12:54:35.221Z,99681.61
2019-04-22T12:57:10.251Z,99678.02
2019-04-22T12:59:43.927Z,99679.63
2019-04-22T13:02:18.690Z,99671.85
2019-04-22T13:04:52.345Z,99665.73
2019-04-22T13:07:26.293Z,99664.42
2019-04-22T13:10:01.433Z,99669.28
2019-04-22T13:12:35.238Z,99668.25
2019-04-22T13:15:09.963Z,99663.81
2019-04-22T13:17:44.348Z,99655.28
2019-04-22T13:20:20.638Z,99655.61
2019-04-22T13:22:54.724Z,99653.31
2019-04-22T13:25:29.995Z,99658.36
2019-04-22T13:28:04.994Z,99649.01
2019-04-22T13:30:39.091Z,99646.84
2019-04-22T13:33:14.689Z,99647.34
2019-04-22T13:35:49.859Z,99646.52
2019-04-22T13:38:24.968Z,99642.30
2019-04-22T13:41:10.879Z,99640.97
2019-04-22T13:43:34.860Z,99636.31
2019-04-22T13:46:10.013Z,99637.74
2019-04-22T13:49:05.975Z,99625.99
2019-04-22T13:56:47.575Z,99621.64
2019-04-22T13:59:13.582Z,99622.39
2019-04-22T14:01:58.763Z,99622.88
2019-04-22T14:04:36.843Z,99615.39
2019-04-22T14:07:12.672Z,99620.05
2019-04-22T14:09:46.513Z,99619.05
2019-04-22T14:12:21.753Z,99621.41
2019-04-22T14:14:56.416Z,99625.88
2019-04-22T14:17:31.532Z,99625.22
2019-04-22T14:20:06.781Z,99627.86
2019-04-22T14:22:40.924Z,99630.79
2019-04-22T14:25:16.654Z,99635.25
2019-04-22T14:27:58.423Z,99639.31
2019-04-22T14:30:26.537Z,99636.81
2019-04-22T14:33:00.436Z,99640.44
2019-04-22T14:35:35.427Z,99644.03
2019-04-22T14:38:10.182Z,99643.48
2019-04-22T14:40:45.491Z,99639.02
2019-04-22T14:43:52.723Z,99629.13
2019-04-22T14:46:20.480Z,99633.31
2019-04-22T14:49:10.115Z,99635.41
2019-04-22T14:51:27.749Z,99629.39
2019-04-22T14:54:01.386Z,99622.84
2019-04-22T14:56:18.043Z,99627.80
2019-04-22T14:58:53.144Z,99629.03
2019-04-22T15:01:26.697Z,99621.78
2019-04-22T15:04:00.898Z,99607.70
2019-04-22T15:06:35.798Z,99622.13
2019-04-22T15:09:12.201Z,99634.77
2019-04-22T15:11:58.468Z,99635.03
2019-04-22T15:14:21.471Z,99634.02
2019-04-22T15:17:27.130Z,99629.97
2019-04-22T15:20:07.708Z,99622.63
2019-04-22T15:22:41.419Z,99617.63
2019-04-22T15:25:16.626Z,99613.06
2019-04-22T15:27:51.186Z,99610.70
2019-04-22T15:30:25.763Z,99615.38
2019-04-22T15:32:59.127Z,99613.09
2019-04-22T15:35:33.658Z,99616.96
2019-04-22T15:38:09.000Z,99622.59
2019-04-22T15:40:42.719Z,99620.14
2019-04-22T15:43:17.048Z,99620.25
2019-04-22T15:45:52.725Z,99616.78
2019-04-22T15:48:27.273Z,99612.34
2019-04-22T15:51:02.820Z,99616.55
2019-04-22T15:53:35.899Z,99620.30
2019-04-22T15:56:10.584Z,99626.19
2019-04-22T15:58:46.100Z,99622.73
2019-04-22T16:01:27.587Z,99624.84
2019-04-22T16:03:54.718Z,99621.48
2019-04-22T16:06:30.166Z,99620.84
2019-04-22T16:09:04.575Z,99621.20
2019-04-22T16:11:40.372Z,99623.69
2019-04-22T16:14:22.902Z,99624.22
2019-04-22T16:16:50.692Z,99623.94
2019-04-22T16:19:25.479Z,99617.50
2019-04-22T16:22:05.561Z,99615.84
2019-04-22T16:24:47.838Z,99620.11
2019-04-22T16:27:24.567Z,99627.20
2019-04-22T16:29:59.289Z,99633.13
2019-04-22T16:32:33.956Z,99629.77
2019-04-22T16:35:08.771Z,99632.64
2019-04-22T16:37:42.961Z,99635.90
2019-04-22T16:40:18.694Z,99641.13
2019-04-22T16:42:58.519Z,99636.30
2019-04-22T16:45:29.623Z,99645.23
2019-04-22T16:48:04.219Z,99647.06
2019-04-22T16:50:42.817Z,99648.30
2019-04-22T16:53:14.608Z,99647.16
2019-04-22T16:55:48.846Z,99646.84
2019-04-22T16:58:23.216Z,99645.25
2019-04-22T17:00:56.925Z,99650.05
2019-04-22T17:03:48.887Z,99649.87
2019-04-22T17:06:29.792Z,99649.83
2019-04-22T17:09:06.596Z,99648.02
2019-04-22T17:11:40.720Z,99647.17
2019-04-22T17:14:18.017Z,99647.97
2019-04-22T17:16:50.627Z,99651.84
2019-04-22T17:19:24.266Z,99647.90
2019-04-22T17:21:59.564Z,99648.45
2019-04-22T17:24:35.309Z,99652.88
2019-04-22T17:27:10.613Z,99649.84
2019-04-22T17:29:46.198Z,99654.71
2019-04-22T17:32:22.752Z,99656.54
2019-04-22T17:34:54.394Z,99662.67
2019-04-22T17:37:30.399Z,99665.33
2019-04-22T17:40:19.655Z,99666.30
2019-04-22T17:42:55.478Z,99671.19
2019-04-22T17:45:49.362Z,99673.44
2019-04-22T17:48:30.888Z,99680.77
2019-04-22T17:51:16.564Z,99683.33
2019-04-22T17:53:46.704Z,99690.39
2019-04-22T17:56:21.621Z,99700.00
2019-04-22T17:58:57.365Z,99703.33
2019-04-22T18:01:29.628Z,99699.62
2019-04-22T18:03:51.572Z,99700.88
2019-04-22T18:06:48.888Z,99701.59
2019-04-22T18:09:28.391Z,99715.08
2019-04-22T18:11:54.274Z,99720.64
2019-04-22T18:14:41.149Z,99717.88
2019-04-22T18:17:02.341Z,99720.06
2019-04-22T18:19:34.083Z,99724.58
2019-04-22T18:22:03.687Z,99729.44
2019-04-22T18:24:32.613Z,99732.53
2019-04-22T18:27:34.256Z,99737.36
2019-04-22T18:29:51.987Z,99739.75
2019-04-22T18:32:23.033Z,99740.13
2019-04-22T18:34:54.193Z,99739.94
2019-04-22T18:37:40.209Z,99741.44
2019-04-22T18:40:14.930Z,99746.06
2019-04-22T18:42:52.439Z,99747.24
2019-04-22T18:45:37.190Z,99746.56
2019-04-22T18:47:50.369Z,99744.80
2019-04-22T18:50:38.154Z,99746.58
2019-04-22T18:53:38.731Z,99744.16
2019-04-22T18:56:26.421Z,99747.42
2019-04-22T18:58:51.349Z,99756.67
2019-04-22T19:01:12.947Z,99754.00
2019-04-22T19:03:55.240Z,99754.59
2019-04-22T19:09:20.394Z,99755.58
2019-04-22T19:12:01.851Z,99759.28
2019-04-22T19:14:33.492Z,99760.62
2019-04-22T19:17:10.910Z,99757.30
2019-04-22T19:19:49.772Z,99761.22
2019-04-22T19:22:17.704Z,99761.61
2019-04-22T19:24:44.253Z,99761.78
2019-04-22T19:27:27.685Z,99760.32
2019-04-22T19:30:07.468Z,99769.30
2019-04-22T19:32:40.391Z,99766.11
2019-04-22T19:35:11.563Z,99769.77
2019-04-22T19:37:41.393Z,99765.72
2019-04-22T19:40:25.859Z,99766.63
2019-04-22T19:42:56.231Z,99769.05
2019-04-22T19:45:26.859Z,99769.27
2019-04-22T19:48:16.377Z,99773.20
2019-04-22T19:50:44.667Z,99769.80
2019-04-22T19:53:19.516Z,99770.48
2019-04-22T19:55:46.513Z,99769.11
2019-04-22T19:58:20.107Z,99772.69
2019-04-22T20:01:22.186Z,99767.48
2019-04-22T20:04:16.200Z,99772.73
2019-04-22T20:06:53.889Z,99770.52
2019-04-22T20:09:39.810Z,99770.20
2019-04-22T20:12:04.325Z,99774.08
2019-04-22T20:14:40.265Z,99773.89
2019-04-22T20:17:19.698Z,99771.16
2019-04-22T20:19:56.057Z,99774.51
2019-04-22T20:22:28.226Z,99772.92
2019-04-22T20:24:53.325Z,99770.93
2019-04-22T20:27:39.213Z,99775.05
2019-04-22T20:30:14.013Z,99774.49
2019-04-22T20:32:47.632Z,99778.04
2019-04-22T20:35:29.491Z,99776.25
2019-04-22T20:38:02.849Z,99774.45
2019-04-22T20:40:37.865Z,99779.46
2019-04-22T20:43:17.560Z,99777.87
2019-04-22T20:45:47.938Z,99773.35
2019-04-22T20:48:10.259Z,99773.78
2019-04-22T20:50:58.131Z,99770.95
2019-04-22T20:53:39.214Z,99764.58
2019-04-22T20:56:13.077Z,99764.11
2019-04-22T20:58:47.951Z,99765.05
2019-04-22T21:01:10.429Z,99769.48
2019-04-22T21:03:45.077Z,99771.50
2019-04-22T21:06:27.544Z,99769.66
2019-04-22T21:09:07.134Z,99771.06
2019-04-22T21:11:44.011Z,99767.44
2019-04-22T21:14:17.798Z,99765.84
2019-04-22T21:16:55.007Z,99768.08
2019-04-22T21:19:35.225Z,99768.53
2019-04-22T21:22:05.046Z,99762.55
2019-04-22T21:24:34.500Z,99760.41
2019-04-22T21:27:13.924Z,99763.03
2019-04-22T21:29:45.106Z,99757.38
2019-04-22T21:32:23.967Z,99759.72
2019-04-22T21:35:22.854Z,99764.45
2019-04-22T21:37:37.763Z,99762.20
2019-04-22T21:40:08.312Z,99763.63
2019-04-22T21:42:48.939Z,99766.15
2019-04-22T21:45:15.139Z,99759.58
2019-04-22T21:48:07.065Z,99759.09
2019-04-22T21:50:41.591Z,99760.19
2019-04-22T21:53:06.765Z,99754.65
2019-04-22T21:55:49.181Z,99752.34
2019-04-22T21:58:31.517Z,99752.56
2019-04-22T22:01:47.466Z,99747.92
2019-04-22T22:04:15.322Z,99754.28
2019-04-22T22:06:40.288Z,99752.45
2019-04-22T22:09:26.635Z,99749.47
2019-04-22T22:11:55.470Z,99748.02
2019-04-22T22:14:31.744Z,99747.51
2019-04-22T22:16:56.209Z,99744.58
2019-04-22T22:19:43.841Z,99747.30
2019-04-22T22:22:35.295Z,99747.77
2019-04-22T22:24:56.958Z,99753.50
2019-04-22T22:27:30.099Z,99743.41
2019-04-22T22:30:33.617Z,99751.80
2019-04-22T22:32:43.855Z,99749.12
2019-04-22T22:35:16.851Z,99748.47
2019-04-22T22:37:50.191Z,99743.09
2019-04-22T22:40:11.821Z,99740.53
2019-04-22T22:42:46.330Z,99740.75
2019-04-22T22:45:28.963Z,99737.61
2019-04-22T22:48:24.163Z,99737.88
2019-04-22T22:50:43.216Z,99738.90
2019-04-22T22:56:00.440Z,99731.42
2019-04-22T22:58:34.290Z,99728.27
2019-04-22T23:01:06.390Z,99728.00
2019-04-22T23:03:51.482Z,99724.50
2019-04-22T23:06:27.161Z,99721.33
2019-04-22T23:09:02.429Z,99723.11
2019-04-22T23:11:54.182Z,99723.75
2019-04-22T23:14:07.173Z,99714.17
2019-04-22T23:16:31.528Z,99711.55
2019-04-22T23:19:08.676Z,99708.11
2019-04-22T23:21:45.994Z,99705.84
2019-04-22T23:24:50.248Z,99700.95
2019-04-22T23:27:46.543Z,99702.71
2019-04-22T23:30:38.883Z,99697.88
2019-04-22T23:33:26.614Z,99694.57
2019-04-22T23:36:10.084Z,99687.53
2019-04-22T23:39:13.539Z,99685.38
2019-04-22T23:44:14.240Z,99684.53
2019-04-22T23:46:58.584Z,99685.95
2019-04-22T23:49:34.891Z,99687.87
2019-04-22T23:52:20.836Z,99672.63
2019-04-22T23:55:06.812Z,99679.89
2019-04-22T23:57:45.340Z,99678.69
